createdAt,value
2023-08-11T00:01:07.214Z,99542.75
2023-08-11T00:03:35.410Z,99541.06
2023-08-11T00:06:03.147Z,99548.13
2023-08-11T00:08:30.814Z,99551.56
2023-08-11T00:10:59.829Z,99556.34
2023-08-11T00:13:27.460Z,99550.75
2023-08-11T00:15:56.702Z,99552.09
2023-08-11T00:18:24.410Z,99555.13
2023-08-11T00:20:52.297Z,99544.31
2023-08-11T00:23:20.022Z,99552.47
2023-08-11T00:25:47.672Z,99556.94
2023-08-11T00:28:16.719Z,99561.31
2023-08-11T00:30:44.432Z,99557.31
2023-08-11T00:33:12.321Z,99548.09
2023-08-11T00:35:40.005Z,99544.50
2023-08-11T00:38:07.620Z,99556.59
2023-08-11T00:40:35.367Z,99547.75
2023-08-11T00:43:03.032Z,99552.56
2023-08-11T00:45:32.249Z,99558.41
2023-08-11T00:48:00.139Z,99556.50
2023-08-11T00:50:28.174Z,99555.63
2023-08-11T00:52:56.337Z,99550.88
2023-08-11T00:55:24.096Z,99548.97
2023-08-11T00:57:51.803Z,99554.88
2023-08-11T01:00:20.085Z,99555.75
2023-08-11T01:02:49.390Z,99550.88
2023-08-11T01:05:18.911Z,99544.50
2023-08-11T01:07:56.032Z,99548.88
2023-08-11T01:10:29.813Z,99537.09
2023-08-11T01:13:02.596Z,99535.94
2023-08-11T01:15:33.984Z,99527.97
2023-08-11T01:18:04.254Z,99531.09
2023-08-11T01:20:32.459Z,99532.16
2023-08-11T01:23:02.264Z,99521.31
2023-08-11T01:25:31.386Z,99529.13
2023-08-11T01:28:01.311Z,99518.28
2023-08-11T01:30:31.297Z,99533.28
2023-08-11T01:32:59.097Z,99528.16
2023-08-11T01:35:39.120Z,99526.06
2023-08-11T01:38:09.728Z,99527.88
2023-08-11T01:40:39.490Z,99528.38
2023-08-11T01:43:08.293Z,99515.44
2023-08-11T01:45:36.408Z,99523.91
2023-08-11T01:48:04.674Z,99529.13
2023-08-11T01:50:33.985Z,99529.50
2023-08-11T01:53:01.693Z,99527.50
2023-08-11T01:55:30.134Z,99525.22
2023-08-11T01:58:00.362Z,99528.06
2023-08-11T02:00:29.306Z,99526.91
2023-08-11T02:02:58.531Z,99524.06
2023-08-11T02:05:26.858Z,99519.47
2023-08-11T02:07:56.677Z,99520.53
2023-08-11T02:10:24.838Z,99518.25
2023-08-11T02:12:52.597Z,99519.94
2023-08-11T02:15:21.677Z,99523.69
2023-08-11T02:17:49.927Z,99519.59
2023-08-11T02:20:22.896Z,99519.09
2023-08-11T02:22:51.804Z,99519.28
2023-08-11T02:25:19.521Z,99521.84
2023-08-11T02:27:47.188Z,99522.31
2023-08-11T02:30:15.462Z,99517.84
2023-08-11T02:32:46.825Z,99521.22
2023-08-11T02:35:15.375Z,99525.91
2023-08-11T02:37:43.319Z,99525.50
2023-08-11T02:40:11.955Z,99521.63
2023-08-11T02:42:40.591Z,99523.28
2023-08-11T02:45:11.514Z,99520.94
2023-08-11T02:47:41.441Z,99527.56
2023-08-11T02:50:11.624Z,99521.31
2023-08-11T02:52:39.665Z,99512.25
2023-08-11T02:55:09.633Z,99519.06
2023-08-11T02:57:37.968Z,99509.22
2023-08-11T03:00:09.479Z,99515.59
2023-08-11T03:02:37.658Z,99523.84
2023-08-11T03:05:08.301Z,99526.91
2023-08-11T03:07:37.714Z,99523.22
2023-08-11T03:10:06.183Z,99524.63
2023-08-11T03:12:34.017Z,99526.06
2023-08-11T03:15:01.673Z,99535.47
2023-08-11T03:17:29.434Z,99535.56
2023-08-11T03:19:57.105Z,99537.97
2023-08-11T03:22:24.890Z,99528.97
2023-08-11T03:24:54.275Z,99535.50
2023-08-11T03:27:22.009Z,99535.91
2023-08-11T03:29:49.678Z,99534.38
2023-08-11T03:32:17.416Z,99539.44
2023-08-11T03:34:45.197Z,99539.25
2023-08-11T03:37:12.905Z,99539.41
2023-08-11T03:39:40.608Z,99544.47
2023-08-11T03:42:11.446Z,99539.78
2023-08-11T03:44:41.533Z,99543.03
2023-08-11T03:47:09.175Z,99534.53
2023-08-11T03:49:37.001Z,99542.59
2023-08-11T03:52:04.936Z,99544.81
2023-08-11T03:54:44.471Z,99541.13
2023-08-11T03:57:14.912Z,99541.38
2023-08-11T03:59:42.662Z,99528.50
2023-08-11T04:02:10.656Z,99538.31
2023-08-11T04:04:38.704Z,99537.28
2023-08-11T04:07:06.683Z,99541.81
2023-08-11T04:09:35.294Z,99534.38
2023-08-11T04:12:03.761Z,99539.34
2023-08-11T04:14:33.051Z,99541.41
2023-08-11T04:17:00.877Z,99537.72
2023-08-11T04:19:28.552Z,99542.09
2023-08-11T04:21:56.251Z,99532.06
2023-08-11T04:24:23.888Z,99537.81
2023-08-11T04:26:52.223Z,99541.81
2023-08-11T04:29:19.894Z,99546.03
2023-08-11T04:31:49.147Z,99544.22
2023-08-11T04:34:17.550Z,99540.78
2023-08-11T04:36:45.971Z,99546.44
2023-08-11T04:39:13.691Z,99538.66
2023-08-11T04:41:41.494Z,99546.44
2023-08-11T04:44:10.024Z,99543.63
2023-08-11T04:46:37.760Z,99552.00
2023-08-11T04:49:06.913Z,99549.44
2023-08-11T04:51:34.751Z,99539.00
2023-08-11T04:54:04.104Z,99551.16
2023-08-11T04:56:31.903Z,99559.13
2023-08-11T04:58:59.558Z,99563.50
2023-08-11T05:01:27.278Z,99546.38
2023-08-11T05:03:55.127Z,99567.09
2023-08-11T05:06:24.175Z,99562.72
2023-08-11T05:08:51.868Z,99559.56
2023-08-11T05:11:19.521Z,99563.50
2023-08-11T05:13:47.170Z,99571.63
2023-08-11T05:16:15.009Z,99573.59
2023-08-11T05:18:44.287Z,99567.34
2023-08-11T05:21:12.843Z,99569.56
2023-08-11T05:23:41.904Z,99573.41
2023-08-11T05:26:09.728Z,99577.69
2023-08-11T05:28:37.482Z,99571.09
2023-08-11T05:31:05.807Z,99576.38
2023-08-11T05:33:34.555Z,99567.84
2023-08-11T05:36:02.718Z,99573.44
2023-08-11T05:38:30.603Z,99574.50
2023-08-11T05:40:59.647Z,99574.22
2023-08-11T05:43:27.385Z,99579.94
2023-08-11T05:45:55.104Z,99586.97
2023-08-11T05:48:22.924Z,99584.69
2023-08-11T05:50:51.363Z,99585.66
2023-08-11T05:53:19.134Z,99579.59
2023-08-11T05:55:46.805Z,99585.88
2023-08-11T05:58:15.797Z,99576.09
2023-08-11T06:00:43.457Z,99575.78
2023-08-11T06:03:11.142Z,99573.50
2023-08-11T06:05:39.488Z,99575.44
2023-08-11T06:08:07.388Z,99576.25
2023-08-11T06:10:35.357Z,99580.34
2023-08-11T06:13:03.188Z,99580.16
2023-08-11T06:15:32.273Z,99583.38
2023-08-11T06:18:00.175Z,99581.44
2023-08-11T06:20:40.237Z,99584.66
2023-08-11T06:23:09.117Z,99580.44
2023-08-11T06:25:37.038Z,99583.41
2023-08-11T06:28:05.182Z,99581.88
2023-08-11T06:30:34.503Z,99586.91
2023-08-11T06:33:02.573Z,99581.06
2023-08-11T06:35:30.789Z,99583.69
2023-08-11T06:37:58.488Z,99583.84
2023-08-11T06:40:26.363Z,99588.44
2023-08-11T06:42:54.048Z,99587.69
2023-08-11T06:45:21.769Z,99593.41
2023-08-11T06:47:50.928Z,99597.78
2023-08-11T06:50:18.725Z,99602.22
2023-08-11T06:52:46.415Z,99600.78
2023-08-11T06:55:14.132Z,99597.47
2023-08-11T06:57:41.892Z,99596.72
2023-08-11T07:00:10.711Z,99597.41
2023-08-11T07:02:38.466Z,99602.00
2023-08-11T07:05:07.939Z,99598.94
2023-08-11T07:07:35.608Z,99608.09
2023-08-11T07:10:04.675Z,99608.50
2023-08-11T07:12:32.511Z,99605.84
2023-08-11T07:15:00.280Z,99612.13
2023-08-11T07:17:27.965Z,99612.44
2023-08-11T07:19:55.610Z,99607.97
2023-08-11T07:22:24.608Z,99607.56
2023-08-11T07:24:52.315Z,99600.19
2023-08-11T07:27:20.020Z,99601.03
2023-08-11T07:29:47.707Z,99604.06
2023-08-11T07:32:15.399Z,99608.41
2023-08-11T07:34:43.117Z,99605.44
2023-08-11T07:37:11.175Z,99606.50
2023-08-11T07:39:40.417Z,99606.47
2023-08-11T07:42:08.097Z,99608.91
2023-08-11T07:44:36.050Z,99606.13
2023-08-11T07:47:04.147Z,99602.34
2023-08-11T07:49:32.523Z,99605.50
2023-08-11T07:52:00.279Z,99609.81
2023-08-11T07:54:28.081Z,99595.31
2023-08-11T07:56:57.195Z,99608.03
2023-08-11T07:59:24.947Z,99605.38
2023-08-11T08:01:53.362Z,99613.47
2023-08-11T08:04:21.289Z,99609.63
2023-08-11T08:06:48.987Z,99608.19
2023-08-11T08:09:16.993Z,99619.22
2023-08-11T08:11:46.512Z,99617.41
2023-08-11T08:14:15.773Z,99615.31
2023-08-11T08:16:45.626Z,99619.44
2023-08-11T08:19:15.211Z,99609.75
2023-08-11T08:21:43.583Z,99615.22
2023-08-11T08:24:11.511Z,99609.25
2023-08-11T08:26:39.342Z,99617.41
2023-08-11T08:29:07.103Z,99612.97
2023-08-11T08:31:36.141Z,99613.63
2023-08-11T08:34:04.117Z,99609.44
2023-08-11T08:36:31.806Z,99605.78
2023-08-11T08:38:59.455Z,99611.59
2023-08-11T08:41:29.430Z,99599.03
2023-08-11T08:43:57.502Z,99602.22
2023-08-11T08:46:29.493Z,99610.59
2023-08-11T08:49:06.533Z,99594.19
2023-08-11T08:51:34.598Z,99603.34
2023-08-11T08:54:02.565Z,99585.19
2023-08-11T08:56:30.683Z,99596.22
2023-08-11T08:58:58.560Z,99593.63
2023-08-11T09:01:26.572Z,99590.28
2023-08-11T09:03:54.795Z,99595.91
2023-08-11T09:06:24.025Z,99598.03
2023-08-11T09:08:51.693Z,99595.50
2023-08-11T09:11:20.057Z,99587.09
2023-08-11T09:13:48.008Z,99580.84
2023-08-11T09:16:16.217Z,99581.56
2023-08-11T09:18:45.180Z,99587.97
2023-08-11T09:21:13.997Z,99587.84
2023-08-11T09:23:44.782Z,99576.91
2023-08-11T09:26:12.397Z,99565.09
2023-08-11T09:28:41.538Z,99562.81
2023-08-11T09:31:09.249Z,99574.28
2023-08-11T09:33:37.158Z,99574.28
2023-08-11T09:36:04.973Z,99583.06
2023-08-11T09:38:32.724Z,99572.53
2023-08-11T09:41:04.179Z,99576.47
2023-08-11T09:43:32.750Z,99566.56
2023-08-11T09:46:01.695Z,99577.09
2023-08-11T09:48:30.730Z,99566.69
2023-08-11T09:50:59.252Z,99570.00
2023-08-11T09:53:28.141Z,99576.19
2023-08-11T09:55:57.398Z,99578.19
2023-08-11T09:58:28.470Z,99576.88
2023-08-11T10:01:04.128Z,99579.22
2023-08-11T10:03:45.236Z,99577.22
2023-08-11T10:06:17.643Z,99587.53
2023-08-11T10:08:46.777Z,99580.53
2023-08-11T10:11:15.596Z,99570.47
2023-08-11T10:13:45.124Z,99577.75
2023-08-11T10:16:14.163Z,99574.25
2023-08-11T10:18:42.154Z,99564.16
2023-08-11T10:21:10.053Z,99572.31
2023-08-11T10:23:38.464Z,99571.59
2023-08-11T10:26:06.279Z,99572.16
2023-08-11T10:28:34.450Z,99572.22
2023-08-11T10:31:06.706Z,99570.13
2023-08-11T10:33:36.454Z,99565.34
2023-08-11T10:36:04.696Z,99565.53
2023-08-11T10:38:33.653Z,99559.41
2023-08-11T10:41:02.195Z,99559.97
2023-08-11T10:43:33.424Z,99561.75
2023-08-11T10:46:24.660Z,99557.28
2023-08-11T10:48:53.206Z,99553.03
2023-08-11T10:51:28.883Z,99557.59
2023-08-11T10:53:58.021Z,99551.81
2023-08-11T10:56:30.044Z,99549.34
2023-08-11T10:59:14.229Z,99543.41
2023-08-11T11:01:44.410Z,99546.72
2023-08-11T11:04:13.288Z,99543.44
2023-08-11T11:06:41.710Z,99544.31
2023-08-11T11:09:09.597Z,99535.84
2023-08-11T11:11:38.638Z,99538.03
2023-08-11T11:14:06.567Z,99536.00
2023-08-11T11:16:34.677Z,99532.13
2023-08-11T11:19:04.689Z,99531.81
2023-08-11T11:21:32.956Z,99520.47
2023-08-11T11:24:00.847Z,99520.78
2023-08-11T11:26:29.898Z,99524.50
2023-08-11T11:28:59.533Z,99519.94
2023-08-11T11:31:28.862Z,99519.28
2023-08-11T11:33:57.030Z,99511.97
2023-08-11T11:36:26.482Z,99520.81
2023-08-11T11:38:54.204Z,99515.38
2023-08-11T11:41:22.559Z,99510.94
2023-08-11T11:43:51.363Z,99507.88
2023-08-11T11:46:21.281Z,99512.28
2023-08-11T11:48:49.969Z,99514.81
2023-08-11T11:51:19.746Z,99520.69
2023-08-11T11:53:51.725Z,99516.69
2023-08-11T11:56:19.966Z,99519.69
2023-08-11T11:58:48.701Z,99506.06
2023-08-11T12:01:19.368Z,99513.84
2023-08-11T12:03:48.233Z,99508.25
2023-08-11T12:06:19.210Z,99516.97
2023-08-11T12:08:50.121Z,99508.84
2023-08-11T12:11:26.394Z,99519.19
2023-08-11T12:13:54.212Z,99509.47
2023-08-11T12:16:23.575Z,99512.75
2023-08-11T12:18:51.436Z,99517.66
2023-08-11T12:21:19.216Z,99512.09
2023-08-11T12:23:48.212Z,99519.66
2023-08-11T12:26:15.823Z,99505.00
2023-08-11T12:28:43.462Z,99505.38
2023-08-11T12:31:13.050Z,99501.28
2023-08-11T12:33:42.215Z,99489.66
2023-08-11T12:36:10.063Z,99496.94
2023-08-11T12:38:37.989Z,99496.38
2023-08-11T12:41:07.036Z,99503.41
2023-08-11T12:43:34.706Z,99497.31
2023-08-11T12:46:02.456Z,99497.47
2023-08-11T12:48:30.192Z,99498.41
2023-08-11T12:50:57.856Z,99490.84
2023-08-11T12:53:25.726Z,99495.69
2023-08-11T12:55:53.378Z,99491.34
2023-08-11T12:58:22.421Z,99487.78
2023-08-11T13:00:50.123Z,99483.47
2023-08-11T13:03:17.853Z,99478.84
2023-08-11T13:05:46.071Z,99476.84
2023-08-11T13:08:13.755Z,99478.47
2023-08-11T13:10:41.483Z,99478.22
2023-08-11T13:13:10.786Z,99470.50
2023-08-11T13:15:41.324Z,99464.19
2023-08-11T13:18:09.088Z,99464.06
2023-08-11T13:20:36.796Z,99459.97
2023-08-11T13:23:04.822Z,99468.19
2023-08-11T13:25:33.077Z,99472.69
2023-08-11T13:28:00.702Z,99469.78
2023-08-11T13:30:31.945Z,99471.06
2023-08-11T13:33:01.466Z,99457.19
2023-08-11T13:35:29.105Z,99468.09
2023-08-11T13:37:56.770Z,99470.25
2023-08-11T13:40:24.908Z,99470.94
2023-08-11T13:42:52.607Z,99461.44
2023-08-11T13:45:20.286Z,99465.50
2023-08-11T13:47:48.166Z,99451.38
2023-08-11T13:50:17.304Z,99449.50
2023-08-11T13:52:45.666Z,99443.50
2023-08-11T13:55:13.365Z,99439.94
2023-08-11T13:57:41.170Z,99442.84
2023-08-11T14:00:13.399Z,99449.59
2023-08-11T14:02:41.156Z,99438.53
2023-08-11T14:05:09.724Z,99434.13
2023-08-11T14:07:38.805Z,99434.66
2023-08-11T14:10:07.372Z,99421.63
2023-08-11T14:12:35.433Z,99418.88
2023-08-11T14:15:03.111Z,99416.00
2023-08-11T14:17:30.777Z,99420.28
2023-08-11T14:19:58.458Z,99411.56
2023-08-11T14:22:26.255Z,99408.19
2023-08-11T14:24:55.996Z,99406.91
2023-08-11T14:27:23.770Z,99409.72
2023-08-11T14:29:51.975Z,99404.66
2023-08-11T14:32:26.098Z,99410.00
2023-08-11T14:34:54.467Z,99404.84
2023-08-11T14:37:22.658Z,99401.94
2023-08-11T14:39:50.348Z,99408.03
2023-08-11T14:42:19.589Z,99406.44
2023-08-11T14:44:47.381Z,99399.84
2023-08-11T14:47:15.811Z,99404.09
2023-08-11T14:49:43.849Z,99402.75
2023-08-11T14:52:12.379Z,99405.09
2023-08-11T14:54:40.434Z,99400.81
2023-08-11T14:57:10.450Z,99407.81
2023-08-11T14:59:40.129Z,99394.59
2023-08-11T15:02:09.218Z,99386.00
2023-08-11T15:04:37.234Z,99390.38
2023-08-11T15:07:04.993Z,99389.78
2023-08-11T15:09:32.730Z,99389.88
2023-08-11T15:12:00.497Z,99388.47
2023-08-11T15:14:28.285Z,99390.06
2023-08-11T15:16:58.414Z,99390.19
2023-08-11T15:19:26.098Z,99391.91
2023-08-11T15:21:53.750Z,99382.31
2023-08-11T15:24:21.384Z,99368.25
2023-08-11T15:26:49.074Z,99373.03
2023-08-11T15:29:16.845Z,99360.28
2023-08-11T15:31:44.593Z,99367.09
2023-08-11T15:34:13.583Z,99363.28
2023-08-11T15:36:41.621Z,99357.63
2023-08-11T15:39:09.605Z,99365.78
2023-08-11T15:41:37.433Z,99365.84
2023-08-11T15:44:05.676Z,99364.03
2023-08-11T15:46:33.495Z,99348.66
2023-08-11T15:49:01.407Z,99351.84
2023-08-11T15:51:30.478Z,99352.69
2023-08-11T15:53:58.114Z,99348.41
2023-08-11T15:56:25.775Z,99356.41
2023-08-11T15:58:56.647Z,99351.06
2023-08-11T16:01:25.251Z,99353.03
2023-08-11T16:03:53.550Z,99354.09
2023-08-11T16:06:21.251Z,99344.72
2023-08-11T16:08:50.265Z,99343.84
2023-08-11T16:11:17.896Z,99336.06
2023-08-11T16:13:45.676Z,99337.44
2023-08-11T16:16:13.395Z,99339.06
2023-08-11T16:18:41.132Z,99331.63
2023-08-11T16:21:08.833Z,99333.69
2023-08-11T16:23:36.742Z,99329.72
2023-08-11T16:26:05.765Z,99324.94
2023-08-11T16:28:33.924Z,99326.97
2023-08-11T16:31:01.657Z,99318.34
2023-08-11T16:33:29.460Z,99317.13
2023-08-11T16:35:57.092Z,99320.22
2023-08-11T16:38:24.751Z,99321.03
2023-08-11T16:40:52.414Z,99323.22
2023-08-11T16:43:21.500Z,99315.22
2023-08-11T16:45:49.513Z,99316.53
2023-08-11T16:48:19.861Z,99317.09
2023-08-11T16:50:47.776Z,99315.84
2023-08-11T16:53:15.426Z,99323.91
2023-08-11T16:55:43.104Z,99325.22
2023-08-11T16:58:10.747Z,99317.44
2023-08-11T17:00:39.787Z,99316.25
2023-08-11T17:03:07.522Z,99321.50
2023-08-11T17:05:35.529Z,99320.75
2023-08-11T17:08:03.202Z,99316.09
2023-08-11T17:10:30.836Z,99323.97
2023-08-11T17:12:58.501Z,99319.38
2023-08-11T17:15:26.226Z,99328.31
2023-08-11T17:17:55.245Z,99321.81
2023-08-11T17:20:22.977Z,99313.94
2023-08-11T17:22:50.633Z,99310.47
2023-08-11T17:25:18.593Z,99316.84
2023-08-11T17:27:46.434Z,99309.25
2023-08-11T17:30:15.236Z,99311.78
2023-08-11T17:32:43.761Z,99312.53
2023-08-11T17:35:12.804Z,99315.72
2023-08-11T17:37:40.472Z,99306.06
2023-08-11T17:40:09.897Z,99298.94
2023-08-11T17:42:37.569Z,99304.47
2023-08-11T17:45:06.078Z,99304.63
2023-08-11T17:47:33.831Z,99309.63
2023-08-11T17:50:01.599Z,99307.81
2023-08-11T17:52:30.598Z,99310.50
2023-08-11T17:54:58.264Z,99303.13
2023-08-11T17:57:25.932Z,99303.22
2023-08-11T17:59:53.699Z,99297.19
2023-08-11T18:02:21.368Z,99293.75
2023-08-11T18:04:49.158Z,99308.38
2023-08-11T18:07:16.940Z,99308.59
2023-08-11T18:09:46.005Z,99311.22
2023-08-11T18:12:13.875Z,99316.31
2023-08-11T18:14:53.833Z,99318.41
2023-08-11T18:17:21.570Z,99326.88
2023-08-11T18:19:49.322Z,99328.22
2023-08-11T18:22:16.939Z,99320.78
2023-08-11T18:24:46.323Z,99325.38
2023-08-11T18:27:14.206Z,99324.19
2023-08-11T18:29:41.994Z,99318.13
2023-08-11T18:32:10.386Z,99317.59
2023-08-11T18:34:38.569Z,99320.31
2023-08-11T18:37:06.359Z,99312.00
2023-08-11T18:39:34.002Z,99319.09
2023-08-11T18:42:03.116Z,99306.22
2023-08-11T18:44:31.014Z,99319.56
2023-08-11T18:46:58.673Z,99314.78
2023-08-11T18:49:28.131Z,99320.16
2023-08-11T18:51:55.778Z,99323.16
2023-08-11T18:54:23.618Z,99329.91
2023-08-11T18:56:51.469Z,99326.13
2023-08-11T18:59:20.497Z,99317.13
2023-08-11T19:01:48.394Z,99330.44
2023-08-11T19:04:16.239Z,99322.53
2023-08-11T19:06:44.386Z,99318.94
2023-08-11T19:09:12.071Z,99328.72
2023-08-11T19:11:39.910Z,99333.72
2023-08-11T19:14:08.520Z,99326.94
2023-08-11T19:16:38.030Z,99330.72
2023-08-11T19:19:06.130Z,99323.97
2023-08-11T19:21:33.757Z,99327.66
2023-08-11T19:24:01.371Z,99335.84
2023-08-11T19:26:29.158Z,99332.06
2023-08-11T19:28:57.419Z,99330.50
2023-08-11T19:31:25.090Z,99327.22
2023-08-11T19:33:54.174Z,99327.97
2023-08-11T19:36:21.833Z,99332.22
2023-08-11T19:38:49.464Z,99333.00
2023-08-11T19:41:17.107Z,99327.69
2023-08-11T19:43:44.763Z,99332.38
2023-08-11T19:46:12.548Z,99330.59
2023-08-11T19:48:40.879Z,99328.19
2023-08-11T19:51:09.865Z,99322.91
2023-08-11T19:53:37.508Z,99325.66
2023-08-11T19:56:05.847Z,99316.56
2023-08-11T19:58:33.462Z,99321.03
2023-08-11T20:01:01.140Z,99319.50
2023-08-11T20:03:28.844Z,99321.22
2023-08-11T20:05:56.509Z,99325.31
2023-08-11T20:08:25.612Z,99316.13
2023-08-11T20:10:53.268Z,99316.44
2023-08-11T20:13:20.951Z,99318.72
2023-08-11T20:15:48.793Z,99316.19
2023-08-11T20:18:16.606Z,99315.25
2023-08-11T20:20:45.349Z,99311.25
2023-08-11T20:23:13.162Z,99315.94
2023-08-11T20:25:42.081Z,99309.41
2023-08-11T20:28:09.858Z,99307.16
2023-08-11T20:30:37.856Z,99312.69
2023-08-11T20:33:06.052Z,99308.91
2023-08-11T20:35:33.716Z,99304.38
2023-08-11T20:38:01.412Z,99300.72
2023-08-11T20:40:29.106Z,99297.34
2023-08-11T20:42:58.137Z,99301.31
2023-08-11T20:45:30.675Z,99298.88
2023-08-11T20:48:01.033Z,99289.97
2023-08-11T20:50:28.946Z,99294.50
2023-08-11T20:52:56.743Z,99287.41
2023-08-11T20:55:24.407Z,99282.88
2023-08-11T20:57:52.057Z,99289.72
2023-08-11T21:00:21.285Z,99287.47
2023-08-11T21:02:49.024Z,99289.06
2023-08-11T21:05:17.078Z,99285.25
2023-08-11T21:07:44.822Z,99289.81
2023-08-11T21:10:15.875Z,99285.59
2023-08-11T21:12:44.060Z,99293.41
2023-08-11T21:15:12.004Z,99291.44
2023-08-11T21:17:41.069Z,99293.44
2023-08-11T21:20:10.026Z,99285.53
2023-08-11T21:22:37.834Z,99290.78
2023-08-11T21:25:05.990Z,99294.03
2023-08-11T21:27:33.770Z,99288.38
2023-08-11T21:30:01.578Z,99282.88
2023-08-11T21:32:29.293Z,99293.22
2023-08-11T21:34:58.376Z,99292.91
2023-08-11T21:37:26.186Z,99297.03
2023-08-11T21:39:53.950Z,99288.69
2023-08-11T21:42:21.747Z,99278.47
2023-08-11T21:44:49.436Z,99298.88
2023-08-11T21:47:17.150Z,99295.47
2023-08-11T21:49:44.904Z,99281.59
2023-08-11T21:52:14.067Z,99282.84
2023-08-11T21:54:41.741Z,99284.28
2023-08-11T21:57:11.342Z,99290.25
2023-08-11T21:59:41.880Z,99288.69
2023-08-11T22:02:09.887Z,99279.34
2023-08-11T22:04:38.338Z,99281.75
2023-08-11T22:07:06.217Z,99285.97
2023-08-11T22:09:35.286Z,99282.03
2023-08-11T22:12:03.031Z,99281.75
2023-08-11T22:14:30.706Z,99285.72
2023-08-11T22:16:59.608Z,99277.78
2023-08-11T22:19:27.531Z,99281.88
2023-08-11T22:21:55.209Z,99281.31
2023-08-11T22:24:34.656Z,99279.75
2023-08-11T22:27:08.805Z,99275.66
2023-08-11T22:29:36.981Z,99281.19
2023-08-11T22:32:05.242Z,99284.44
2023-08-11T22:34:32.998Z,99284.38
2023-08-11T22:37:00.808Z,99290.69
2023-08-11T22:39:28.577Z,99291.25
2023-08-11T22:41:56.261Z,99299.16
2023-08-11T22:44:25.308Z,99290.13
2023-08-11T22:46:53.337Z,99283.03
2023-08-11T22:49:21.051Z,99287.66
2023-08-11T22:51:48.741Z,99277.16
2023-08-11T22:54:16.514Z,99283.69
2023-08-11T22:56:44.245Z,99275.50
2023-08-11T22:59:11.927Z,99277.56
2023-08-11T23:01:40.931Z,99278.38
2023-08-11T23:04:08.798Z,99276.88
2023-08-11T23:06:36.663Z,99275.75
2023-08-11T23:09:04.640Z,99275.38
2023-08-11T23:11:32.419Z,99282.63
2023-08-11T23:14:00.112Z,99277.94
2023-08-11T23:16:28.098Z,99269.91
2023-08-11T23:18:57.178Z,99272.00
2023-08-11T23:21:24.932Z,99239.03
2023-08-11T23:23:52.599Z,99266.19
2023-08-11T23:26:20.312Z,99264.19
2023-08-11T23:28:48.265Z,99266.63
2023-08-11T23:31:17.513Z,99261.22
2023-08-11T23:33:45.421Z,99252.16
2023-08-11T23:36:14.486Z,99248.44
2023-08-11T23:38:42.196Z,99258.25
2023-08-11T23:41:09.850Z,99249.25
2023-08-11T23:43:37.787Z,99240.31
2023-08-11T23:46:08.092Z,99236.59
2023-08-11T23:48:35.957Z,99227.94
2023-08-11T23:51:03.720Z,99234.69
2023-08-11T23:53:32.757Z,99230.19
2023-08-11T23:56:00.630Z,99226.81
2023-08-11T23:58:28.508Z,99225.66
